Satellite Precipitation Estimates (TXUS20 KWBC)
Issued by NWS

Home | Current Version | Previous Version | Text Only | Print | Product List | Glossary On
Versions: 1
000
SPTD31 TTPP 291845 CCA
SPECI
TTCP 291840Z 10011KT 9999 VCSH SCT016 27/24 Q1013 RESH NOSIG RMK
JP-SW=



USA.gov is the U.S. government's official web portal to all federal, state and local government web resources and services.